createdAt,value
2023-05-11T00:01:43.236Z,13.57
2023-05-11T00:04:09.703Z,13.55
2023-05-11T00:06:36.178Z,12.50
2023-05-11T00:09:04.439Z,12.85
2023-05-11T00:11:31.156Z,12.75
2023-05-11T00:13:57.602Z,13.73
2023-05-11T00:16:24.128Z,12.52
2023-05-11T00:18:50.631Z,14.07
2023-05-11T00:21:17.056Z,13.88
2023-05-11T00:23:43.709Z,13.43
2023-05-11T00:26:10.850Z,15.07
2023-05-11T00:28:37.273Z,13.93
2023-05-11T00:31:03.774Z,14.00
2023-05-11T00:33:30.284Z,13.95
2023-05-11T00:35:56.965Z,14.43
2023-05-11T00:38:23.398Z,15.75
2023-05-11T00:40:50.913Z,14.52
2023-05-11T00:43:17.399Z,14.52
2023-05-11T00:45:47.894Z,14.02
2023-05-11T00:48:18.010Z,13.27
2023-05-11T00:50:44.683Z,14.90
2023-05-11T00:53:11.528Z,15.13
2023-05-11T00:55:38.425Z,15.70
2023-05-11T00:58:07.717Z,14.48
2023-05-11T01:00:34.238Z,15.75
2023-05-11T01:03:01.604Z,16.27
2023-05-11T01:05:36.493Z,15.48
2023-05-11T01:08:12.743Z,17.55
2023-05-11T01:10:48.697Z,16.80
2023-05-11T01:13:31.735Z,16.40
2023-05-11T01:15:58.412Z,16.77
2023-05-11T01:18:42.046Z,18.20
2023-05-11T01:21:11.059Z,17.60
2023-05-11T01:24:19.981Z,18.13
2023-05-11T01:27:12.431Z,16.75
2023-05-11T01:29:50.732Z,20.10
2023-05-11T01:32:22.093Z,16.48
2023-05-11T01:34:53.060Z,20.52
2023-05-11T01:37:22.885Z,19.92
2023-05-11T01:39:54.924Z,20.52
2023-05-11T01:42:26.191Z,18.85
2023-05-11T01:47:23.489Z,17.75
2023-05-11T01:49:51.549Z,18.05
2023-05-11T01:52:21.683Z,18.25
2023-05-11T01:54:51.387Z,18.73
2023-05-11T01:57:18.695Z,17.98
2023-05-11T01:59:46.199Z,20.20
2023-05-11T02:02:18.069Z,19.20
2023-05-11T02:04:45.860Z,17.40
2023-05-11T02:07:14.225Z,19.33
2023-05-11T02:09:41.937Z,18.48
2023-05-11T02:12:10.391Z,18.58
2023-05-11T02:14:37.801Z,19.42
2023-05-11T02:17:06.196Z,17.60
2023-05-11T02:19:35.694Z,19.77
2023-05-11T02:22:03.098Z,19.00
2023-05-11T02:24:31.499Z,19.92
2023-05-11T02:26:59.063Z,20.15
2023-05-11T02:29:26.445Z,19.23
2023-05-11T02:32:09.067Z,20.20
2023-05-11T02:34:45.378Z,18.70
2023-05-11T02:37:18.475Z,17.58
2023-05-11T02:39:47.364Z,16.23
2023-05-11T02:42:22.384Z,18.80
2023-05-11T02:45:04.995Z,18.73
2023-05-11T02:47:38.068Z,18.13
2023-05-11T02:50:06.997Z,19.08
2023-05-11T02:52:36.011Z,17.65
2023-05-11T02:55:04.882Z,17.65
2023-05-11T02:57:31.570Z,17.20
2023-05-11T02:59:58.140Z,17.08
2023-05-11T03:02:24.676Z,17.45
2023-05-11T03:04:51.135Z,16.08
2023-05-11T03:07:17.562Z,15.48
2023-05-11T03:09:44.245Z,16.27
2023-05-11T03:12:11.188Z,17.45
2023-05-11T03:14:38.561Z,17.80
2023-05-11T03:17:06.811Z,17.27
2023-05-11T03:19:33.656Z,16.65
2023-05-11T03:22:00.961Z,16.25
2023-05-11T03:24:28.026Z,16.02
2023-05-11T03:26:56.554Z,16.40
2023-05-11T03:29:25.565Z,17.55
2023-05-11T03:31:52.207Z,16.92
2023-05-11T03:34:18.860Z,16.45
2023-05-11T03:36:49.344Z,18.05
2023-05-11T03:39:21.287Z,16.70
2023-05-11T03:41:50.682Z,16.55
2023-05-11T03:44:20.704Z,15.90
2023-05-11T03:46:48.645Z,16.80
2023-05-11T03:49:15.988Z,18.15
2023-05-11T03:51:43.739Z,18.13
2023-05-11T03:54:10.818Z,17.63
2023-05-11T03:56:38.243Z,17.65
2023-05-11T03:59:04.774Z,16.15
2023-05-11T04:01:32.155Z,17.92
2023-05-11T04:03:58.663Z,15.60
2023-05-11T04:06:25.181Z,16.80
2023-05-11T04:08:51.612Z,17.88
2023-05-11T04:11:17.998Z,17.85
2023-05-11T04:13:44.420Z,16.45
2023-05-11T04:16:11.097Z,16.55
2023-05-11T04:18:37.588Z,17.13
2023-05-11T04:21:04.333Z,17.70
2023-05-11T04:23:30.743Z,18.30
2023-05-11T04:25:57.188Z,16.27
2023-05-11T04:28:27.934Z,17.38
2023-05-11T04:30:55.571Z,16.05
2023-05-11T04:33:22.244Z,19.02
2023-05-11T04:35:52.891Z,16.90
2023-05-11T04:38:20.706Z,17.55
2023-05-11T04:40:48.006Z,18.25
2023-05-11T04:43:15.389Z,18.95
2023-05-11T04:45:41.945Z,21.38
2023-05-11T04:48:08.462Z,17.50
2023-05-11T04:50:36.794Z,17.45
2023-05-11T04:53:03.202Z,19.27
2023-05-11T04:55:29.715Z,15.27
2023-05-11T04:57:56.210Z,15.80
2023-05-11T05:00:22.761Z,17.70
2023-05-11T05:02:50.865Z,15.55
2023-05-11T05:05:17.760Z,17.02
2023-05-11T05:07:44.410Z,16.00
2023-05-11T05:10:12.405Z,17.33
2023-05-11T05:12:39.474Z,16.52
2023-05-11T05:15:06.836Z,15.63
2023-05-11T05:17:33.681Z,16.73
2023-05-11T05:20:00.269Z,15.63
2023-05-11T05:22:30.092Z,15.80
2023-05-11T05:24:56.608Z,17.08
2023-05-11T05:27:23.636Z,17.25
2023-05-11T05:29:51.387Z,17.50
2023-05-11T05:32:17.948Z,17.10
2023-05-11T05:34:46.856Z,16.33
2023-05-11T05:37:13.263Z,15.82
2023-05-11T05:39:39.669Z,16.75
2023-05-11T05:42:06.274Z,19.23
2023-05-11T05:44:32.694Z,16.45
2023-05-11T05:46:59.112Z,15.07
2023-05-11T05:49:25.682Z,11.65
2023-05-11T05:51:52.138Z,11.77
2023-05-11T05:54:18.611Z,10.48
2023-05-11T05:56:45.123Z,10.02
2023-05-11T05:59:13.197Z,10.70
2023-05-11T06:01:45.478Z,10.40
2023-05-11T06:04:15.182Z,11.20
2023-05-11T06:06:41.766Z,10.10
2023-05-11T06:09:08.223Z,8.93
2023-05-11T06:11:34.674Z,12.13
2023-05-11T06:14:01.450Z,8.70
2023-05-11T06:16:31.174Z,9.68
2023-05-11T06:18:57.648Z,9.18
2023-05-11T06:21:24.205Z,9.50
2023-05-11T06:23:50.731Z,9.25
2023-05-11T06:26:17.224Z,9.25
2023-05-11T06:28:43.642Z,10.27
2023-05-11T06:31:10.401Z,9.35
2023-05-11T06:33:36.856Z,8.93
2023-05-11T06:36:07.504Z,10.35
2023-05-11T06:38:33.978Z,12.35
2023-05-11T06:41:00.486Z,12.40
2023-05-11T06:43:27.001Z,11.25
2023-05-11T06:45:53.455Z,13.23
2023-05-11T06:48:20.100Z,10.20
2023-05-11T06:50:46.661Z,11.40
2023-05-11T06:53:13.856Z,13.80
2023-05-11T06:55:40.355Z,12.27
2023-05-11T06:58:06.954Z,13.68
2023-05-11T07:00:33.802Z,13.23
2023-05-11T07:03:00.519Z,14.48
2023-05-11T07:05:27.915Z,11.65
2023-05-11T07:07:54.328Z,12.80
2023-05-11T07:10:21.058Z,12.93
2023-05-11T07:12:47.711Z,11.00
2023-05-11T07:15:14.173Z,13.07
2023-05-11T07:17:40.944Z,12.95
2023-05-11T07:20:08.005Z,13.07
2023-05-11T07:22:34.426Z,13.60
2023-05-11T07:25:00.830Z,13.18
2023-05-11T07:27:27.373Z,12.63
2023-05-11T07:29:53.872Z,12.15
2023-05-11T07:32:20.412Z,12.35
2023-05-11T07:34:46.889Z,13.18
2023-05-11T07:37:13.369Z,13.13
2023-05-11T07:39:40.119Z,12.63
2023-05-11T07:42:06.552Z,10.27
2023-05-11T07:44:32.938Z,12.93
2023-05-11T07:46:59.384Z,12.27
2023-05-11T07:49:39.514Z,8.43
2023-05-11T07:52:09.748Z,9.57
2023-05-11T07:54:36.196Z,11.80
2023-05-11T07:57:04.914Z,9.90
2023-05-11T07:59:31.660Z,13.13
2023-05-11T08:01:58.327Z,10.18
2023-05-11T08:04:27.869Z,10.25
2023-05-11T08:06:54.404Z,9.93
2023-05-11T08:09:20.853Z,11.88
2023-05-11T08:11:47.371Z,10.13
2023-05-11T08:14:18.488Z,10.15
2023-05-11T08:19:12.969Z,7.68
2023-05-11T08:21:39.788Z,8.85
2023-05-11T08:24:06.392Z,7.93
2023-05-11T08:26:33.410Z,5.25
2023-05-11T08:28:59.890Z,4.50
2023-05-11T08:31:26.385Z,6.30
2023-05-11T08:33:52.920Z,6.40
2023-05-11T08:36:19.685Z,7.47
2023-05-11T08:38:46.098Z,8.52
2023-05-11T08:41:13.235Z,7.45
2023-05-11T08:43:40.545Z,7.10
2023-05-11T08:46:08.645Z,7.10
2023-05-11T08:48:36.109Z,8.88
2023-05-11T08:51:04.257Z,8.93
2023-05-11T08:53:30.996Z,6.63
2023-05-11T08:55:59.529Z,8.15
2023-05-11T08:58:27.400Z,6.18
2023-05-11T09:00:54.752Z,6.72
2023-05-11T09:03:22.418Z,5.72
2023-05-11T09:05:49.774Z,6.50
2023-05-11T09:08:18.634Z,5.88
2023-05-11T09:10:45.170Z,6.75
2023-05-11T09:13:11.942Z,6.35
2023-05-11T09:15:38.611Z,5.15
2023-05-11T09:18:05.505Z,5.28
2023-05-11T09:20:33.554Z,4.95
2023-05-11T09:23:00.829Z,5.25
2023-05-11T09:25:32.256Z,5.43
2023-05-11T09:28:00.092Z,5.85
2023-05-11T09:30:26.772Z,5.18
2023-05-11T09:33:01.092Z,5.45
2023-05-11T09:35:31.453Z,12.68
2023-05-11T09:38:11.077Z,12.73
2023-05-11T09:40:38.489Z,5.40
2023-05-11T09:43:23.620Z,4.00
2023-05-11T09:45:51.654Z,4.22
2023-05-11T09:48:21.315Z,3.78
2023-05-11T09:50:49.671Z,4.75
2023-05-11T09:53:17.101Z,4.43
2023-05-11T09:55:54.687Z,5.22
2023-05-11T09:58:21.981Z,5.90
2023-05-11T10:00:51.195Z,3.65
2023-05-11T10:03:18.696Z,4.63
2023-05-11T10:06:01.470Z,3.60
2023-05-11T10:08:40.200Z,4.97
2023-05-11T10:11:08.580Z,4.82
2023-05-11T10:13:36.994Z,7.07
2023-05-11T10:16:04.703Z,6.72
2023-05-11T10:18:34.369Z,5.95
2023-05-11T10:21:02.028Z,5.20
2023-05-11T10:23:28.742Z,5.30
2023-05-11T10:25:55.738Z,4.72
2023-05-11T10:28:22.555Z,5.20
2023-05-11T10:30:49.605Z,6.78
2023-05-11T10:33:17.670Z,5.15
2023-05-11T10:35:45.822Z,6.45
2023-05-11T10:38:13.420Z,5.05
2023-05-11T10:40:43.738Z,5.20
2023-05-11T10:43:49.070Z,5.05
2023-05-11T10:46:45.915Z,5.43
2023-05-11T10:49:38.865Z,4.80
2023-05-11T10:52:30.945Z,5.30
2023-05-11T10:55:24.970Z,6.45
2023-05-11T10:58:03.272Z,6.05
2023-05-11T11:00:51.836Z,5.82
2023-05-11T11:03:21.822Z,5.97
2023-05-11T11:05:48.552Z,6.35
2023-05-11T11:08:16.181Z,6.55
2023-05-11T11:10:51.869Z,6.97
2023-05-11T11:13:20.398Z,6.95
2023-05-11T11:16:10.491Z,6.78
2023-05-11T11:18:37.834Z,6.40
2023-05-11T11:21:07.597Z,8.68
2023-05-11T11:23:50.411Z,7.00
2023-05-11T11:26:37.834Z,7.13
2023-05-11T11:29:08.541Z,5.00
2023-05-11T11:31:38.731Z,4.00
2023-05-11T11:34:36.381Z,4.60
2023-05-11T11:37:06.190Z,3.72
2023-05-11T11:39:42.158Z,3.88
2023-05-11T11:42:11.368Z,4.93
2023-05-11T11:44:39.562Z,4.05
2023-05-11T11:47:21.932Z,4.03
2023-05-11T11:49:53.386Z,4.25
2023-05-11T11:52:28.728Z,4.28
2023-05-11T11:54:57.049Z,3.67
2023-05-11T11:57:35.586Z,5.43
2023-05-11T12:00:05.633Z,4.47
2023-05-11T12:02:33.545Z,5.90
2023-05-11T12:05:02.117Z,4.35
2023-05-11T12:07:33.512Z,5.47
2023-05-11T12:10:04.037Z,3.60
2023-05-11T12:12:30.997Z,4.47
2023-05-11T12:14:59.783Z,2.17
2023-05-11T12:17:29.779Z,3.45
2023-05-11T12:20:12.216Z,2.03
2023-05-11T12:22:38.717Z,2.58
2023-05-11T12:25:06.456Z,3.40
2023-05-11T12:27:32.917Z,2.13
2023-05-11T12:30:00.242Z,2.15
2023-05-11T12:32:31.230Z,2.80
2023-05-11T12:37:30.088Z,1.97
2023-05-11T12:39:57.375Z,1.98
2023-05-11T12:42:24.116Z,2.45
2023-05-11T12:44:51.219Z,1.73
2023-05-11T12:47:17.935Z,1.88
2023-05-11T12:49:45.088Z,2.38
2023-05-11T12:52:13.936Z,1.77
2023-05-11T12:54:51.405Z,3.17
2023-05-11T12:57:26.509Z,2.53
2023-05-11T13:00:10.468Z,2.35
2023-05-11T13:02:53.777Z,2.70
2023-05-11T13:05:26.615Z,2.55
2023-05-11T13:08:01.327Z,3.15
2023-05-11T13:10:28.116Z,4.22
2023-05-11T13:12:55.112Z,4.50
2023-05-11T13:15:23.486Z,4.55
2023-05-11T13:18:16.825Z,4.53
2023-05-11T13:20:44.868Z,4.28
2023-05-11T13:23:13.435Z,3.88
2023-05-11T13:26:00.671Z,3.83
2023-05-11T13:28:27.642Z,3.50
2023-05-11T13:31:01.814Z,3.00
2023-05-11T13:33:28.477Z,2.50
2023-05-11T13:35:55.665Z,2.35
2023-05-11T13:38:22.147Z,2.38
2023-05-11T13:40:48.543Z,2.33
2023-05-11T13:43:14.977Z,2.50
2023-05-11T13:45:41.699Z,2.72
2023-05-11T13:48:08.440Z,2.88
2023-05-11T13:50:34.897Z,1.65
2023-05-11T13:53:01.586Z,0.95
2023-05-11T13:55:29.610Z,0.98
2023-05-11T13:57:56.741Z,1.52
2023-05-11T14:00:23.558Z,1.20
2023-05-11T14:02:51.390Z,1.17
2023-05-11T14:05:18.400Z,1.40
2023-05-11T14:07:48.418Z,1.38
2023-05-11T14:10:19.302Z,1.02
2023-05-11T14:12:46.094Z,1.23
2023-05-11T14:15:12.752Z,0.80
2023-05-11T14:17:41.582Z,0.93
2023-05-11T14:20:08.795Z,0.50
2023-05-11T14:22:35.185Z,0.60
2023-05-11T14:25:01.920Z,0.60
2023-05-11T14:27:28.603Z,0.85
2023-05-11T14:29:55.174Z,0.40
2023-05-11T14:32:21.719Z,0.70
2023-05-11T14:34:48.684Z,0.57
2023-05-11T14:37:15.175Z,0.30
2023-05-11T14:39:42.191Z,0.20
2023-05-11T14:42:08.841Z,0.20
2023-05-11T14:44:35.818Z,0.47
2023-05-11T14:47:02.492Z,0.20
2023-05-11T14:49:28.983Z,0.25
2023-05-11T14:51:56.658Z,0.20
2023-05-11T14:54:23.374Z,0.20
2023-05-11T14:56:53.855Z,0.10
2023-05-11T14:59:26.492Z,0.15
2023-05-11T15:01:53.410Z,0.20
2023-05-11T15:04:20.323Z,0.10
2023-05-11T15:06:46.868Z,0.20
2023-05-11T15:09:13.950Z,0.20
2023-05-11T15:11:40.480Z,0.22
2023-05-11T15:14:07.094Z,0.40
2023-05-11T15:16:33.801Z,0.40
2023-05-11T15:19:00.978Z,0.32
2023-05-11T15:21:28.264Z,0.30
2023-05-11T15:23:55.522Z,0.10
2023-05-11T15:26:22.777Z,0.20
2023-05-11T15:28:49.953Z,0.17
2023-05-11T15:31:16.664Z,0.20
2023-05-11T15:33:44.046Z,0.10
2023-05-11T15:36:15.105Z,0.20
2023-05-11T15:41:09.658Z,0.28
2023-05-11T15:43:36.107Z,0.10
2023-05-11T15:46:03.679Z,0.40
2023-05-11T15:48:30.956Z,0.20
2023-05-11T15:50:59.712Z,0.15
2023-05-11T15:53:26.546Z,0.40
2023-05-11T15:55:55.335Z,0.10
2023-05-11T15:58:22.513Z,0.20
2023-05-11T16:00:51.231Z,0.47
2023-05-11T16:03:21.402Z,0.30
2023-05-11T16:06:00.625Z,0.30
2023-05-11T16:08:28.081Z,0.17
2023-05-11T16:10:57.941Z,0.10
2023-05-11T16:13:31.564Z,0.40
2023-05-11T16:15:59.586Z,0.50
2023-05-11T16:18:26.789Z,0.32
2023-05-11T16:20:54.268Z,0.20
2023-05-11T16:23:26.978Z,0.20
2023-05-11T16:25:53.910Z,0.10
2023-05-11T16:28:21.016Z,0.40
2023-05-11T16:30:47.702Z,0.10
2023-05-11T16:33:20.938Z,0.13
2023-05-11T16:35:47.807Z,0.10
2023-05-11T16:38:18.856Z,0.55
2023-05-11T16:43:12.150Z,0.43
2023-05-11T16:45:39.056Z,0.20
2023-05-11T16:48:06.225Z,0.30
2023-05-11T16:50:33.360Z,0.20
2023-05-11T16:53:03.476Z,0.30
2023-05-11T16:55:30.961Z,0.32
2023-05-11T16:57:57.620Z,0.50
2023-05-11T17:00:26.151Z,0.75
2023-05-11T17:02:53.007Z,0.43
2023-05-11T17:05:21.854Z,0.55
2023-05-11T17:07:48.915Z,0.60
2023-05-11T17:10:15.547Z,0.90
2023-05-11T17:12:41.978Z,1.42
2023-05-11T17:15:11.722Z,0.77
2023-05-11T17:17:38.521Z,0.25
2023-05-11T17:20:08.388Z,0.50
2023-05-11T17:22:35.214Z,1.50
2023-05-11T17:25:03.860Z,0.40
2023-05-11T17:27:31.786Z,0.45
2023-05-11T17:29:58.351Z,0.20
2023-05-11T17:32:25.004Z,0.43
2023-05-11T17:34:51.600Z,0.50
2023-05-11T17:37:30.740Z,0.57
2023-05-11T17:40:00.129Z,0.40
2023-05-11T17:42:26.823Z,0.55
2023-05-11T17:44:53.286Z,0.32
2023-05-11T17:47:19.688Z,0.50
2023-05-11T17:49:46.087Z,0.20
2023-05-11T17:52:12.690Z,0.30
2023-05-11T17:54:39.105Z,0.30
2023-05-11T17:57:05.549Z,0.22
2023-05-11T17:59:32.146Z,0.50
2023-05-11T18:01:58.870Z,0.50
2023-05-11T18:04:25.484Z,0.80
2023-05-11T18:06:51.929Z,0.70
2023-05-11T18:09:19.540Z,0.20
2023-05-11T18:11:46.067Z,0.30
2023-05-11T18:14:12.496Z,0.40
2023-05-11T18:16:39.343Z,0.13
2023-05-11T18:19:05.956Z,0.40
2023-05-11T18:21:33.284Z,0.30
2023-05-11T18:23:59.752Z,1.27
2023-05-11T18:26:26.200Z,0.30
2023-05-11T18:28:54.937Z,0.60
2023-05-11T18:31:22.134Z,0.45
2023-05-11T18:33:49.186Z,0.10
2023-05-11T18:36:16.005Z,0.20
2023-05-11T18:38:44.004Z,0.10
2023-05-11T18:41:13.998Z,0.20
2023-05-11T18:43:43.727Z,0.20
2023-05-11T18:46:10.489Z,0.20
2023-05-11T18:48:39.028Z,0.10
2023-05-11T18:51:06.061Z,0.20
2023-05-11T18:53:33.199Z,0.20
2023-05-11T18:55:59.634Z,0.10
2023-05-11T18:58:26.053Z,0.25
2023-05-11T19:00:52.563Z,0.98
2023-05-11T19:03:20.680Z,0.20
2023-05-11T19:05:48.302Z,0.20
2023-05-11T19:08:15.072Z,0.17
2023-05-11T19:10:44.988Z,0.95
2023-05-11T19:13:12.583Z,0.28
2023-05-11T19:15:39.316Z,0.38
2023-05-11T19:18:05.814Z,0.20
2023-05-11T19:20:32.280Z,0.30
2023-05-11T19:22:58.701Z,0.40
2023-05-11T19:25:25.149Z,0.10
2023-05-11T19:27:52.167Z,0.32
2023-05-11T19:30:18.864Z,0.40
2023-05-11T19:32:45.569Z,0.20
2023-05-11T19:35:12.732Z,0.35
2023-05-11T19:37:39.119Z,1.27
2023-05-11T19:40:40.547Z,0.32
2023-05-11T19:42:52.494Z,0.20
2023-05-11T19:45:19.078Z,0.30
2023-05-11T19:47:45.640Z,0.20
2023-05-11T19:50:14.429Z,0.28
2023-05-11T19:52:41.054Z,0.20
2023-05-11T19:55:07.861Z,0.30
2023-05-11T19:57:37.240Z,0.30
2023-05-11T20:00:05.518Z,0.35
2023-05-11T20:02:32.432Z,0.50
2023-05-11T20:04:59.625Z,0.40
2023-05-11T20:07:27.424Z,0.40
2023-05-11T20:09:54.306Z,0.60
2023-05-11T20:12:20.783Z,0.68
2023-05-11T20:14:47.226Z,0.55
2023-05-11T20:17:13.663Z,0.63
2023-05-11T20:19:40.073Z,0.70
2023-05-11T20:22:08.854Z,0.68
2023-05-11T20:24:35.284Z,0.60
2023-05-11T20:27:08.850Z,0.77
2023-05-11T20:29:36.154Z,0.88
2023-05-11T20:32:02.941Z,1.00
2023-05-11T20:34:29.483Z,1.00
2023-05-11T20:36:55.912Z,1.10
2023-05-11T20:39:23.069Z,0.95
2023-05-11T20:41:52.420Z,0.88
2023-05-11T20:44:19.087Z,0.95
2023-05-11T20:46:47.271Z,0.85
2023-05-11T20:49:20.164Z,0.95
2023-05-11T20:51:51.543Z,1.83
2023-05-11T20:54:17.988Z,1.63
2023-05-11T20:56:44.553Z,1.10
2023-05-11T21:00:03.733Z,1.10
2023-05-11T21:01:58.642Z,0.90
2023-05-11T21:04:25.309Z,0.98
2023-05-11T21:06:54.854Z,0.90
2023-05-11T21:09:21.259Z,0.95
2023-05-11T21:11:48.773Z,0.85
2023-05-11T21:14:15.579Z,1.10
2023-05-11T21:16:42.271Z,1.92
2023-05-11T21:19:09.111Z,0.63
2023-05-11T21:21:35.752Z,0.90
2023-05-11T21:24:02.235Z,0.85
2023-05-11T21:26:28.793Z,0.93
2023-05-11T21:28:57.078Z,0.93
2023-05-11T21:31:23.636Z,1.30
2023-05-11T21:33:50.107Z,0.77
2023-05-11T21:36:16.541Z,0.63
2023-05-11T21:38:43.080Z,0.98
2023-05-11T21:41:09.616Z,0.75
2023-05-11T21:43:36.069Z,1.02
2023-05-11T21:46:03.048Z,0.90
2023-05-11T21:48:29.943Z,0.93
2023-05-11T21:50:56.356Z,1.17
2023-05-11T21:53:23.822Z,1.10
2023-05-11T21:55:50.465Z,1.40
2023-05-11T21:58:17.074Z,1.02
2023-05-11T22:00:44.023Z,1.38
2023-05-11T22:03:10.593Z,2.35
2023-05-11T22:05:37.107Z,1.60
2023-05-11T22:08:13.856Z,1.70
2023-05-11T22:10:41.676Z,1.30
2023-05-11T22:13:08.088Z,1.00
2023-05-11T22:15:34.511Z,0.90
2023-05-11T22:18:01.022Z,0.82
2023-05-11T22:20:27.510Z,0.90
2023-05-11T22:22:53.900Z,0.77
2023-05-11T22:25:20.415Z,1.17
2023-05-11T22:27:46.885Z,0.95
2023-05-11T22:30:13.401Z,1.30
2023-05-11T22:32:39.823Z,1.17
2023-05-11T22:35:07.090Z,1.33
2023-05-11T22:37:33.571Z,1.00
2023-05-11T22:39:59.956Z,1.42
2023-05-11T22:42:26.448Z,1.00
2023-05-11T22:44:52.911Z,1.30
2023-05-11T22:47:19.371Z,1.33
2023-05-11T22:49:46.176Z,1.10
2023-05-11T22:52:12.898Z,1.50
2023-05-11T22:54:39.334Z,0.93
2023-05-11T22:57:06.384Z,0.75
2023-05-11T22:59:34.570Z,0.82
2023-05-11T23:02:03.181Z,1.17
2023-05-11T23:04:31.195Z,1.00
2023-05-11T23:06:58.732Z,1.23
2023-05-11T23:09:25.882Z,1.15
2023-05-11T23:11:52.443Z,1.35
2023-05-11T23:14:18.891Z,0.85
2023-05-11T23:16:45.282Z,1.80
2023-05-11T23:19:11.680Z,1.50
2023-05-11T23:21:38.107Z,1.13
2023-05-11T23:24:04.946Z,2.55
2023-05-11T23:26:31.409Z,1.30
2023-05-11T23:28:57.821Z,1.42
2023-05-11T23:31:24.443Z,1.30
2023-05-11T23:33:50.900Z,1.35
2023-05-11T23:36:17.295Z,1.25
2023-05-11T23:38:43.731Z,1.48
2023-05-11T23:41:10.144Z,1.85
2023-05-11T23:43:37.225Z,1.50
2023-05-11T23:46:03.670Z,1.40
2023-05-11T23:48:30.069Z,1.48
2023-05-11T23:50:56.860Z,2.30
2023-05-11T23:53:23.295Z,1.85
2023-05-11T23:55:49.691Z,1.40
2023-05-11T23:58:16.092Z,1.45
